sensor_id;sensor_type;location;lat;lon;timestamp;P1;durP1;ratioP1;P2;durP2;ratioP2
22146;SDS011;13074;48.298;14.424;2024-03-02T00:00:38;82.20;;;34.30;;
22146;SDS011;13074;48.298;14.424;2024-03-02T00:03:19;80.37;;;33.33;;
22146;SDS011;13074;48.298;14.424;2024-03-02T00:05:50;74.50;;;32.80;;
22146;SDS011;13074;48.298;14.424;2024-03-02T00:08:21;82.50;;;36.20;;
22146;SDS011;13074;48.298;14.424;2024-03-02T00:10:56;77.33;;;33.63;;
22146;SDS011;13074;48.298;14.424;2024-03-02T00:13:27;86.50;;;34.53;;
22146;SDS011;13074;48.298;14.424;2024-03-02T00:15:56;85.43;;;34.93;;
22146;SDS011;13074;48.298;14.424;2024-03-02T00:18:25;79.10;;;35.20;;
22146;SDS011;13074;48.298;14.424;2024-03-02T00:20:54;88.50;;;36.13;;
22146;SDS011;13074;48.298;14.424;2024-03-02T00:23:27;88.30;;;37.47;;
22146;SDS011;13074;48.298;14.424;2024-03-02T00:25:57;92.40;;;37.03;;
22146;SDS011;13074;48.298;14.424;2024-03-02T00:28:32;91.57;;;36.00;;
22146;SDS011;13074;48.298;14.424;2024-03-02T00:31:02;89.17;;;35.10;;
22146;SDS011;13074;48.298;14.424;2024-03-02T00:33:32;93.67;;;36.50;;
22146;SDS011;13074;48.298;14.424;2024-03-02T00:36:01;91.87;;;36.87;;
22146;SDS011;13074;48.298;14.424;2024-03-02T00:38:30;90.07;;;39.20;;
22146;SDS011;13074;48.298;14.424;2024-03-02T00:40:58;90.13;;;40.30;;
22146;SDS011;13074;48.298;14.424;2024-03-02T00:43:43;92.77;;;38.43;;
22146;SDS011;13074;48.298;14.424;2024-03-02T00:46:15;86.80;;;36.30;;
22146;SDS011;13074;48.298;14.424;2024-03-02T00:48:58;82.30;;;36.50;;
22146;SDS011;13074;48.298;14.424;2024-03-02T00:51:29;87.97;;;36.73;;
22146;SDS011;13074;48.298;14.424;2024-03-02T00:53:58;88.40;;;37.90;;
22146;SDS011;13074;48.298;14.424;2024-03-02T00:56:29;78.60;;;34.73;;
22146;SDS011;13074;48.298;14.424;2024-03-02T00:59:01;80.67;;;35.83;;
22146;SDS011;13074;48.298;14.424;2024-03-02T01:01:29;87.47;;;37.13;;
22146;SDS011;13074;48.298;14.424;2024-03-02T01:03:57;91.77;;;38.30;;
22146;SDS011;13074;48.298;14.424;2024-03-02T01:06:25;81.47;;;35.20;;
22146;SDS011;13074;48.298;14.424;2024-03-02T01:08:53;75.70;;;35.07;;
22146;SDS011;13074;48.298;14.424;2024-03-02T01:11:21;74.73;;;34.93;;
22146;SDS011;13074;48.298;14.424;2024-03-02T01:13:49;85.73;;;35.90;;
22146;SDS011;13074;48.298;14.424;2024-03-02T01:16:18;91.67;;;37.13;;
22146;SDS011;13074;48.298;14.424;2024-03-02T01:18:47;88.93;;;38.93;;
22146;SDS011;13074;48.298;14.424;2024-03-02T01:21:19;81.77;;;37.83;;
22146;SDS011;13074;48.298;14.424;2024-03-02T01:24:01;86.20;;;38.07;;
22146;SDS011;13074;48.298;14.424;2024-03-02T01:26:30;91.07;;;37.80;;
22146;SDS011;13074;48.298;14.424;2024-03-02T01:28:59;92.40;;;38.10;;
22146;SDS011;13074;48.298;14.424;2024-03-02T01:31:29;85.00;;;37.53;;
22146;SDS011;13074;48.298;14.424;2024-03-02T01:33:58;91.90;;;39.40;;
22146;SDS011;13074;48.298;14.424;2024-03-02T01:41:38;98.07;;;39.67;;
22146;SDS011;13074;48.298;14.424;2024-03-02T01:44:07;105.17;;;41.43;;
22146;SDS011;13074;48.298;14.424;2024-03-02T01:49:22;93.27;;;37.10;;
22146;SDS011;13074;48.298;14.424;2024-03-02T01:52:00;90.00;;;40.37;;
22146;SDS011;13074;48.298;14.424;2024-03-02T01:54:29;96.60;;;37.87;;
22146;SDS011;13074;48.298;14.424;2024-03-02T01:57:00;88.20;;;39.53;;
22146;SDS011;13074;48.298;14.424;2024-03-02T01:59:36;102.57;;;39.40;;
